DAOB/TID METAR and TAF weather

Enter ICAO airport designator
Station Type Date Time Source
DAOB METAR 2020/09/22 20:00 UTC NOAA

DAOB 222000Z 28005KT CAVOK 20/05 Q1019


Station Type Date Time Source
DAOB Decoded METAR 2020/09/22 20:00 UTC NOAA

Tiaret, Algeria (DAOB) 35-15N 001-26E 1127M
Sep 22, 2020 - 04:00 PM EDT / 2020.09.22 2000 UTC
Wind: from the W (280 degrees) at 6 MPH (5 KT):0
Visibility: greater than 7 mile(s):0
Temperature: 68 F (20 C)
Dew Point: 41 F (5 C)
Relative Humidity: 37%
Pressure (altimeter): 30.09 in. Hg (1019 hPa)
ob: DAOB 222000Z 28005KT CAVOK 20/05 Q1019
cycle: 20

Station Type Date Time Source
DAOB TAF 2020/09/22 18:33 UTC NOAA

TAF DAOB 221700Z 2218/2318 28010KT 9999 FEW026
BECMG 2220/2223 VRB02KT PROB30
TEMPO 2306/2315 FEW030CB
BECMG 2309/2312 24010KT

Example: see airport list